createdAt,value
2022-11-19T00:01:26.835Z,5.18
2022-11-19T00:03:54.465Z,4.78
2022-11-19T00:06:25.220Z,4.57
2022-11-19T00:08:53.005Z,4.85
2022-11-19T00:11:42.247Z,6.15
2022-11-19T00:14:14.636Z,5.93
2022-11-19T00:16:43.650Z,5.93
2022-11-19T00:19:11.645Z,7.30
2022-11-19T00:21:38.521Z,6.82
2022-11-19T00:24:05.775Z,6.72
2022-11-19T00:26:32.553Z,6.55
2022-11-19T00:28:59.436Z,6.70
2022-11-19T00:31:26.182Z,7.78
2022-11-19T00:33:54.508Z,7.40
2022-11-19T00:36:22.324Z,7.40
2022-11-19T00:38:49.028Z,7.00
2022-11-19T00:41:15.742Z,7.35
2022-11-19T00:43:48.603Z,8.60
2022-11-19T00:46:20.790Z,11.13
2022-11-19T00:48:50.082Z,12.10
2022-11-19T00:51:18.430Z,12.18
2022-11-19T00:53:45.404Z,11.85
2022-11-19T00:56:16.590Z,13.07
2022-11-19T00:58:43.669Z,12.88
2022-11-19T01:01:12.086Z,12.60
2022-11-19T01:03:41.073Z,12.73
2022-11-19T01:06:09.572Z,13.60
2022-11-19T01:08:37.084Z,13.38
2022-11-19T01:11:17.408Z,12.38
2022-11-19T01:13:44.394Z,12.45
2022-11-19T01:16:25.142Z,12.30
2022-11-19T01:18:52.518Z,11.73
2022-11-19T01:21:22.292Z,12.88
2022-11-19T01:23:49.638Z,10.80
2022-11-19T01:26:16.997Z,11.85
2022-11-19T01:28:45.096Z,9.25
2022-11-19T01:31:22.924Z,10.43
2022-11-19T01:33:50.262Z,11.90
2022-11-19T01:36:26.904Z,10.35
2022-11-19T01:38:54.651Z,10.18
2022-11-19T01:41:29.619Z,9.48
2022-11-19T01:43:59.770Z,8.82
2022-11-19T01:46:33.264Z,7.90
2022-11-19T01:49:15.112Z,8.50
2022-11-19T01:51:58.254Z,8.35
2022-11-19T01:54:33.423Z,8.00
2022-11-19T01:57:08.043Z,8.55
2022-11-19T01:59:35.113Z,9.10
2022-11-19T02:02:01.888Z,9.88
2022-11-19T02:04:29.452Z,10.23
2022-11-19T02:06:57.061Z,10.75
2022-11-19T02:09:25.579Z,10.77
2022-11-19T02:12:35.188Z,11.85
2022-11-19T02:15:29.895Z,10.68
2022-11-19T02:18:49.810Z,10.68
2022-11-19T02:21:49.903Z,11.00
2022-11-19T02:24:45.720Z,9.63
2022-11-19T02:27:36.632Z,13.48
2022-11-19T02:30:18.497Z,12.85
2022-11-19T02:33:09.320Z,18.23
2022-11-19T02:35:57.061Z,17.17
2022-11-19T02:38:46.630Z,17.88
2022-11-19T02:41:46.576Z,17.60
2022-11-19T02:45:02.154Z,18.30
2022-11-19T02:48:06.454Z,16.15
2022-11-19T02:50:45.586Z,14.63
2022-11-19T02:53:12.358Z,15.93
2022-11-19T02:55:40.208Z,17.75
2022-11-19T02:58:34.979Z,17.58
2022-11-19T03:01:23.860Z,13.63
2022-11-19T03:04:10.593Z,12.43
2022-11-19T03:06:38.672Z,17.77
2022-11-19T03:09:05.481Z,17.23
2022-11-19T03:11:33.059Z,16.58
2022-11-19T03:14:35.208Z,12.10
2022-11-19T03:17:14.988Z,14.10
2022-11-19T03:19:56.962Z,13.93
2022-11-19T03:23:08.162Z,12.98
2022-11-19T03:25:44.876Z,12.98
2022-11-19T03:28:21.951Z,14.00
2022-11-19T03:30:51.157Z,14.20
2022-11-19T03:33:35.540Z,14.65
2022-11-19T03:36:14.448Z,14.13
2022-11-19T03:38:50.674Z,12.65
2022-11-19T03:41:20.232Z,15.30
2022-11-19T03:43:53.510Z,13.95
2022-11-19T03:46:22.329Z,13.10
2022-11-19T03:48:52.651Z,13.43
2022-11-19T03:51:28.760Z,14.27
2022-11-19T03:53:55.648Z,12.98
2022-11-19T03:56:26.305Z,12.77
2022-11-19T03:58:53.941Z,12.90
2022-11-19T04:01:21.991Z,15.32
2022-11-19T04:04:07.096Z,13.40
2022-11-19T04:06:33.838Z,12.85
2022-11-19T04:09:00.526Z,13.20
2022-11-19T04:13:52.905Z,15.02
2022-11-19T04:16:19.621Z,11.73
2022-11-19T04:18:46.303Z,14.55
2022-11-19T04:21:13.012Z,13.45
2022-11-19T04:23:39.722Z,11.95
2022-11-19T04:26:06.493Z,14.55
2022-11-19T04:28:33.206Z,14.27
2022-11-19T04:30:59.900Z,14.55
2022-11-19T04:33:26.638Z,13.30
2022-11-19T04:35:53.414Z,14.05
2022-11-19T04:38:20.200Z,12.30
2022-11-19T04:40:47.488Z,15.18
2022-11-19T04:43:14.177Z,13.45
2022-11-19T04:45:40.962Z,12.93
2022-11-19T04:48:07.676Z,14.10
2022-11-19T04:50:34.398Z,11.95
2022-11-19T04:53:01.187Z,14.18
2022-11-19T04:55:27.907Z,14.05
2022-11-19T04:57:54.682Z,15.13
2022-11-19T05:00:21.395Z,16.08
2022-11-19T05:02:48.115Z,15.13
2022-11-19T05:05:14.934Z,15.23
2022-11-19T05:07:41.662Z,13.52
2022-11-19T05:10:09.039Z,14.57
2022-11-19T05:12:35.757Z,13.98
2022-11-19T05:15:02.452Z,13.55
2022-11-19T05:17:29.166Z,13.93
2022-11-19T05:19:55.868Z,14.23
2022-11-19T05:22:22.596Z,16.50
2022-11-19T05:24:49.285Z,12.73
2022-11-19T05:27:16.008Z,13.10
2022-11-19T05:29:42.748Z,12.02
2022-11-19T05:32:09.476Z,14.85
2022-11-19T05:34:36.178Z,15.45
2022-11-19T05:37:02.896Z,13.38
2022-11-19T05:39:29.753Z,14.70
2022-11-19T06:01:14.852Z,16.30
2022-11-19T06:03:41.634Z,17.65
2022-11-19T06:06:08.460Z,16.83
2022-11-19T06:08:35.176Z,17.58
2022-11-19T06:11:04.936Z,14.93
2022-11-19T06:13:31.641Z,18.05
2022-11-19T06:15:58.386Z,16.45
2022-11-19T06:18:25.097Z,18.75
2022-11-19T06:20:51.793Z,17.55
2022-11-19T06:23:18.499Z,20.20
2022-11-19T06:25:45.210Z,17.67
2022-11-19T06:28:11.932Z,17.38
2022-11-19T06:30:38.675Z,17.35
2022-11-19T06:33:05.403Z,20.50
2022-11-19T06:35:32.138Z,19.50
2022-11-19T06:37:58.852Z,16.00
2022-11-19T06:40:25.558Z,19.42
2022-11-19T06:42:52.275Z,18.23
2022-11-19T06:45:19.026Z,20.08
2022-11-19T06:47:48.967Z,21.25
2022-11-19T06:50:15.729Z,19.33
2022-11-19T06:52:42.524Z,22.17
2022-11-19T06:55:09.606Z,20.92
2022-11-19T06:57:36.349Z,22.00
2022-11-19T07:00:04.499Z,19.05
2022-11-19T07:02:31.265Z,20.15
2022-11-19T07:04:57.970Z,20.67
2022-11-19T07:07:24.815Z,16.58
2022-11-19T07:09:51.560Z,18.77
2022-11-19T07:12:18.333Z,20.00
2022-11-19T07:14:45.086Z,21.05
2022-11-19T07:17:11.919Z,19.50
2022-11-19T07:19:38.640Z,19.35
2022-11-19T07:22:05.369Z,19.67
2022-11-19T07:24:32.238Z,20.50
2022-11-19T07:26:58.983Z,19.30
2022-11-19T07:29:25.739Z,19.02
2022-11-19T07:31:53.258Z,17.45
2022-11-19T07:34:20.563Z,16.67
2022-11-19T07:36:48.411Z,14.73
2022-11-19T07:39:15.508Z,16.90
2022-11-19T07:42:01.071Z,15.63
2022-11-19T07:44:27.841Z,14.43
2022-11-19T07:46:54.570Z,16.25
2022-11-19T07:49:21.808Z,17.58
2022-11-19T07:51:48.974Z,15.15
2022-11-19T07:54:15.951Z,14.90
2022-11-19T07:56:43.479Z,15.80
2022-11-19T07:59:10.953Z,15.93
2022-11-19T08:01:38.401Z,17.48
2022-11-19T08:04:05.357Z,14.52
2022-11-19T08:06:34.338Z,17.05
2022-11-19T08:09:02.811Z,16.33
2022-11-19T08:11:29.997Z,17.38
2022-11-19T08:14:01.129Z,15.65
2022-11-19T08:16:47.111Z,15.68
2022-11-19T08:19:16.290Z,15.48
2022-11-19T08:21:45.943Z,15.93
2022-11-19T08:24:14.906Z,17.17
2022-11-19T08:26:43.428Z,16.77
2022-11-19T08:29:16.308Z,15.23
2022-11-19T08:31:45.852Z,15.20
2022-11-19T08:34:13.537Z,16.73
2022-11-19T08:36:40.347Z,17.90
2022-11-19T08:39:07.686Z,16.33
2022-11-19T08:41:52.890Z,16.65
2022-11-19T08:44:20.582Z,16.20
2022-11-19T08:46:47.635Z,16.33
2022-11-19T08:49:14.424Z,17.15
2022-11-19T08:51:41.152Z,15.45
2022-11-19T08:54:08.325Z,16.23
2022-11-19T08:56:35.070Z,18.10
2022-11-19T08:59:03.221Z,15.75
2022-11-19T09:01:30.818Z,15.43
2022-11-19T09:03:57.790Z,16.98
2022-11-19T09:06:24.606Z,16.80
2022-11-19T09:08:51.332Z,17.45
2022-11-19T09:11:20.186Z,16.08
2022-11-19T09:13:46.937Z,16.35
2022-11-19T09:16:14.000Z,15.57
2022-11-19T09:18:42.034Z,15.20
2022-11-19T09:21:11.413Z,14.65
2022-11-19T09:23:39.187Z,15.98
2022-11-19T09:26:09.500Z,12.25
2022-11-19T09:28:36.673Z,15.25
2022-11-19T09:31:15.764Z,15.27
2022-11-19T09:33:46.633Z,14.85
2022-11-19T09:36:14.192Z,14.02
2022-11-19T09:38:41.541Z,13.63
2022-11-19T09:42:00.416Z,14.32
2022-11-19T09:45:11.009Z,13.88
2022-11-19T09:48:17.180Z,14.48
2022-11-19T09:51:03.150Z,12.57
2022-11-19T09:53:37.689Z,13.57
2022-11-19T09:56:06.476Z,16.15
2022-11-19T09:58:40.228Z,15.55
2022-11-19T10:01:17.202Z,15.75
2022-11-19T10:03:51.012Z,13.73
2022-11-19T10:07:23.160Z,15.13
2022-11-19T10:10:15.479Z,14.73
2022-11-19T10:13:29.015Z,15.65
2022-11-19T10:16:23.195Z,14.30
2022-11-19T10:19:29.819Z,14.18
2022-11-19T10:22:15.988Z,13.63
2022-11-19T10:24:59.597Z,15.50
2022-11-19T10:27:41.873Z,16.27
2022-11-19T10:30:16.757Z,15.27
2022-11-19T10:32:54.813Z,15.48
2022-11-19T10:35:48.450Z,12.82
2022-11-19T10:38:41.200Z,14.85
2022-11-19T10:41:16.975Z,13.55
2022-11-19T10:44:01.818Z,13.45
2022-11-19T10:46:29.027Z,12.18
2022-11-19T10:48:59.262Z,14.63
2022-11-19T10:51:35.607Z,15.95
2022-11-19T10:54:07.440Z,14.65
2022-11-19T10:56:40.333Z,13.50
2022-11-19T10:59:18.913Z,12.32
2022-11-19T11:01:50.009Z,13.30
2022-11-19T11:04:22.084Z,11.07
2022-11-19T11:07:01.979Z,15.82
2022-11-19T11:09:29.675Z,12.82
2022-11-19T11:12:20.230Z,14.10
2022-11-19T11:14:54.736Z,13.40
2022-11-19T11:17:27.250Z,10.63
2022-11-19T11:20:03.972Z,13.32
2022-11-19T11:22:31.068Z,15.18
2022-11-19T11:25:05.660Z,14.55
2022-11-19T11:27:35.507Z,12.00
2022-11-19T11:30:14.556Z,14.63
2022-11-19T11:32:42.414Z,13.25
2022-11-19T11:35:32.027Z,13.13
2022-11-19T11:38:01.493Z,14.07
2022-11-19T11:40:29.368Z,14.10
2022-11-19T11:42:56.673Z,14.48
2022-11-19T11:45:35.307Z,11.70
2022-11-19T11:48:09.086Z,13.73
2022-11-19T11:50:37.310Z,13.57
2022-11-19T11:53:10.171Z,13.20
2022-11-19T11:55:38.591Z,13.65
2022-11-19T11:58:26.834Z,13.43
2022-11-19T12:01:16.214Z,13.55
2022-11-19T12:03:55.386Z,12.05
2022-11-19T12:06:33.874Z,12.93
2022-11-19T12:09:47.177Z,12.02
2022-11-19T12:12:34.782Z,13.18
2022-11-19T12:15:35.933Z,13.63
2022-11-19T12:18:48.960Z,12.95
2022-11-19T12:21:36.631Z,13.45
2022-11-19T12:24:36.602Z,13.35
2022-11-19T12:27:38.011Z,13.13
2022-11-19T12:30:51.502Z,12.13
2022-11-19T12:34:09.432Z,14.00
2022-11-19T12:36:57.378Z,12.55
2022-11-19T12:39:53.901Z,12.27
2022-11-19T12:42:51.777Z,12.52
2022-11-19T12:45:37.267Z,16.05
2022-11-19T12:48:09.736Z,14.30
2022-11-19T12:51:05.276Z,13.05
2022-11-19T12:54:15.761Z,11.88
2022-11-19T12:57:08.397Z,13.75
2022-11-19T12:59:58.948Z,12.07
2022-11-19T13:02:56.354Z,14.55
2022-11-19T13:05:47.980Z,13.27
2022-11-19T13:08:43.277Z,12.13
2022-11-19T13:11:44.278Z,13.25
2022-11-19T13:14:49.531Z,13.43
2022-11-19T13:17:41.422Z,11.90
2022-11-19T13:20:21.719Z,12.02
2022-11-19T13:22:53.430Z,12.82
2022-11-19T13:25:45.408Z,11.25
2022-11-19T13:28:36.038Z,13.75
2022-11-19T13:31:13.535Z,13.35
2022-11-19T13:33:49.480Z,13.32
2022-11-19T13:36:27.009Z,13.50
2022-11-19T13:38:59.323Z,11.93
2022-11-19T13:41:34.026Z,13.45
2022-11-19T13:44:19.669Z,14.52
2022-11-19T13:46:58.260Z,12.88
2022-11-19T13:49:30.907Z,13.18
2022-11-19T13:52:06.071Z,13.45
2022-11-19T13:54:39.164Z,13.60
2022-11-19T13:57:08.576Z,12.93
2022-11-19T13:59:40.062Z,14.95
2022-11-19T14:02:34.516Z,10.93
2022-11-19T14:05:26.231Z,11.52
2022-11-19T14:08:39.191Z,11.27
2022-11-19T14:14:04.847Z,10.05
2022-11-19T14:20:15.719Z,11.68
2022-11-19T14:23:13.959Z,12.93
2022-11-19T14:26:08.275Z,12.23
2022-11-19T14:28:50.208Z,12.55
2022-11-19T14:31:21.233Z,12.38
2022-11-19T14:33:47.874Z,11.02
2022-11-19T14:36:23.458Z,11.27
2022-11-19T14:38:57.581Z,13.20
2022-11-19T14:41:33.969Z,11.20
2022-11-19T14:44:13.546Z,12.23
2022-11-19T14:46:47.211Z,11.60
2022-11-19T14:49:33.797Z,11.02
2022-11-19T14:52:01.104Z,12.10
2022-11-19T14:54:38.007Z,13.35
2022-11-19T14:57:15.486Z,11.27
2022-11-19T14:59:49.771Z,11.48
2022-11-19T15:02:25.950Z,12.50
2022-11-19T15:05:06.589Z,10.82
2022-11-19T15:07:54.283Z,11.27
2022-11-19T15:10:29.519Z,11.48
2022-11-19T15:13:27.402Z,8.05
2022-11-19T15:15:59.942Z,11.27
2022-11-19T15:18:44.672Z,12.00
2022-11-19T15:21:29.896Z,11.32
2022-11-19T15:24:21.667Z,11.32
2022-11-19T15:27:00.268Z,10.30
2022-11-19T15:29:56.937Z,11.10
2022-11-19T15:32:55.520Z,10.10
2022-11-19T15:36:12.495Z,10.35
2022-11-19T15:38:46.742Z,10.40
2022-11-19T15:41:21.558Z,10.18
2022-11-19T15:43:56.831Z,9.48
2022-11-19T15:46:32.563Z,10.55
2022-11-19T15:49:10.166Z,9.48
2022-11-19T15:52:04.281Z,10.30
2022-11-19T15:54:34.203Z,9.15
2022-11-19T15:57:23.184Z,10.35
2022-11-19T16:00:04.866Z,8.68
2022-11-19T16:02:37.209Z,8.70
2022-11-19T16:05:06.197Z,7.80
2022-11-19T16:07:33.557Z,8.98
2022-11-19T16:10:00.713Z,9.68
2022-11-19T16:12:47.310Z,9.27
2022-11-19T16:15:44.552Z,9.68
2022-11-19T16:18:17.187Z,8.80
2022-11-19T16:20:47.598Z,9.05
2022-11-19T16:23:21.405Z,9.52
2022-11-19T16:25:49.181Z,8.48
2022-11-19T16:28:30.344Z,10.55
2022-11-19T16:31:01.978Z,9.15
2022-11-19T16:33:31.272Z,6.90
2022-11-19T16:36:16.133Z,8.05
2022-11-19T16:38:48.057Z,9.35
2022-11-19T16:41:37.739Z,8.00
2022-11-19T16:44:09.785Z,9.02
2022-11-19T16:46:37.031Z,6.57
2022-11-19T16:49:05.361Z,8.57
2022-11-19T16:51:39.657Z,8.40
2022-11-19T16:54:10.174Z,8.20
2022-11-19T16:56:43.059Z,8.98
2022-11-19T16:59:21.580Z,10.60
2022-11-19T17:01:56.279Z,9.23
2022-11-19T17:04:31.298Z,9.20
2022-11-19T17:06:59.042Z,8.75
2022-11-19T17:09:47.441Z,9.05
2022-11-19T17:12:29.550Z,9.25
2022-11-19T17:14:59.931Z,8.73
2022-11-19T17:17:42.129Z,8.50
2022-11-19T17:20:43.791Z,9.15
2022-11-19T17:23:18.035Z,8.23
2022-11-19T17:25:54.233Z,9.73
2022-11-19T17:28:34.972Z,10.45
2022-11-19T17:31:31.931Z,10.85
2022-11-19T17:34:18.039Z,8.95
2022-11-19T17:36:45.146Z,8.02
2022-11-19T17:39:14.623Z,8.27
2022-11-19T17:42:01.799Z,8.48
2022-11-19T17:44:40.396Z,8.73
2022-11-19T17:47:23.832Z,9.55
2022-11-19T17:49:52.045Z,9.32
2022-11-19T17:52:25.558Z,8.85
2022-11-19T17:54:56.126Z,8.75
2022-11-19T17:57:23.040Z,10.05
2022-11-19T17:59:49.934Z,9.27
2022-11-19T18:02:20.289Z,8.73
2022-11-19T18:04:47.759Z,8.23
2022-11-19T18:07:16.011Z,8.60
2022-11-19T18:09:42.924Z,8.40
2022-11-19T18:12:19.116Z,9.98
2022-11-19T18:14:46.779Z,10.48
2022-11-19T18:17:15.042Z,10.25
2022-11-19T18:19:41.883Z,9.05
2022-11-19T18:22:19.820Z,8.82
2022-11-19T18:24:48.419Z,8.93
2022-11-19T18:27:16.079Z,8.70
2022-11-19T18:29:42.876Z,8.82
2022-11-19T18:32:15.930Z,9.13
2022-11-19T18:34:44.294Z,7.50
2022-11-19T18:37:11.464Z,7.90
2022-11-19T18:39:38.410Z,8.10
2022-11-19T18:42:05.169Z,6.90
2022-11-19T18:44:34.473Z,8.23
2022-11-19T18:47:14.157Z,7.00
2022-11-19T18:49:41.738Z,7.45
2022-11-19T18:52:12.515Z,6.70
2022-11-19T18:54:39.324Z,7.18
2022-11-19T18:57:06.062Z,6.50
2022-11-19T18:59:33.047Z,8.05
2022-11-19T19:01:59.879Z,8.13
2022-11-19T19:04:26.868Z,7.43
2022-11-19T19:06:53.600Z,7.88
2022-11-19T19:09:21.140Z,7.47
2022-11-19T19:12:12.920Z,8.13
2022-11-19T19:14:41.441Z,8.13
2022-11-19T19:17:08.243Z,8.48
2022-11-19T19:19:35.525Z,7.55
2022-11-19T19:22:02.432Z,7.90
2022-11-19T19:24:30.428Z,7.95
2022-11-19T19:26:57.278Z,8.20
2022-11-19T19:29:24.326Z,10.25
2022-11-19T19:31:51.352Z,10.20
2022-11-19T19:34:18.224Z,8.95
2022-11-19T19:36:50.302Z,8.85
2022-11-19T19:39:19.861Z,8.27
2022-11-19T19:41:46.910Z,8.48
2022-11-19T19:44:13.630Z,8.52
2022-11-19T19:46:40.369Z,7.78
2022-11-19T19:49:07.309Z,7.65
2022-11-19T19:51:34.159Z,6.22
2022-11-19T19:54:01.259Z,6.40
2022-11-19T19:56:31.233Z,7.13
2022-11-19T19:58:59.357Z,6.65
2022-11-19T20:01:37.520Z,5.97
2022-11-19T20:04:10.401Z,6.22
2022-11-19T20:06:44.725Z,6.30
2022-11-19T20:09:11.448Z,5.93
2022-11-19T20:11:38.631Z,6.70
2022-11-19T20:14:05.915Z,6.47
2022-11-19T20:16:33.851Z,7.22
2022-11-19T20:19:01.589Z,7.50
2022-11-19T20:21:34.139Z,7.88
2022-11-19T20:24:03.934Z,7.65
2022-11-19T20:26:32.953Z,7.75
2022-11-19T20:29:05.204Z,7.60
2022-11-19T20:34:03.787Z,7.90
2022-11-19T20:36:33.573Z,8.38
2022-11-19T20:39:00.901Z,8.52
2022-11-19T20:41:47.700Z,7.95
2022-11-19T20:44:25.830Z,7.80
2022-11-19T20:46:59.273Z,7.53
2022-11-19T20:49:30.247Z,7.05
2022-11-19T20:51:58.030Z,7.35
2022-11-19T20:54:25.978Z,8.57
2022-11-19T20:56:54.589Z,7.93
2022-11-19T20:59:23.057Z,8.60
2022-11-19T21:01:50.950Z,8.13
2022-11-19T21:04:19.287Z,9.40
2022-11-19T21:06:46.784Z,7.03
2022-11-19T21:09:15.629Z,8.80
2022-11-19T21:11:43.315Z,9.40
2022-11-19T21:14:10.064Z,8.60
2022-11-19T21:16:36.878Z,9.25
2022-11-19T21:19:03.992Z,7.60
2022-11-19T21:21:30.789Z,10.38
2022-11-19T21:23:57.694Z,10.02
2022-11-19T21:26:27.116Z,9.98
2022-11-19T21:28:57.366Z,9.43
2022-11-19T21:31:38.342Z,14.15
2022-11-19T21:34:07.812Z,8.98
2022-11-19T21:36:35.032Z,9.15
2022-11-19T21:39:03.326Z,7.72
2022-11-19T21:41:30.202Z,9.52
2022-11-19T21:43:56.963Z,8.80
2022-11-19T21:46:23.691Z,8.82
2022-11-19T21:48:50.447Z,10.88
2022-11-19T21:51:22.986Z,13.00
2022-11-19T21:53:56.856Z,10.18
2022-11-19T21:56:25.644Z,10.15
2022-11-19T21:58:52.359Z,9.15
2022-11-19T22:01:19.320Z,10.80
2022-11-19T22:03:46.190Z,9.88
2022-11-19T22:06:13.041Z,10.85
2022-11-19T22:08:42.816Z,9.93
2022-11-19T22:11:30.419Z,10.27
2022-11-19T22:14:06.865Z,10.35
2022-11-19T22:16:40.115Z,8.63
2022-11-19T22:19:07.465Z,8.38
2022-11-19T22:21:34.623Z,7.30
2022-11-19T22:24:01.466Z,9.30
2022-11-19T22:26:28.373Z,8.70
2022-11-19T22:28:55.740Z,8.63
2022-11-19T22:31:24.410Z,8.70
2022-11-19T22:33:52.119Z,8.65
2022-11-19T22:36:20.532Z,9.27
2022-11-19T22:38:47.635Z,9.25
2022-11-19T22:41:18.258Z,8.70
2022-11-19T22:43:45.594Z,8.10
2022-11-19T22:46:13.234Z,8.63
2022-11-19T22:48:40.609Z,8.80
2022-11-19T22:51:20.765Z,8.95
2022-11-19T22:53:49.499Z,7.75
2022-11-19T22:56:20.843Z,7.70
2022-11-19T22:58:49.892Z,7.77
2022-11-19T23:01:29.455Z,8.20
2022-11-19T23:03:58.237Z,8.90
2022-11-19T23:06:25.781Z,9.48
2022-11-19T23:08:53.274Z,9.85
2022-11-19T23:11:42.306Z,9.07
2022-11-19T23:14:12.704Z,9.25
2022-11-19T23:16:40.528Z,8.93
2022-11-19T23:19:08.168Z,9.10
2022-11-19T23:21:35.543Z,10.20
2022-11-19T23:24:02.795Z,7.63
2022-11-19T23:26:32.971Z,8.52
2022-11-19T23:28:59.731Z,8.80
2022-11-19T23:31:32.797Z,9.32
2022-11-19T23:33:59.845Z,9.07
2022-11-19T23:36:31.703Z,9.80
2022-11-19T23:38:59.728Z,7.75
2022-11-19T23:41:27.540Z,8.70
2022-11-19T23:43:55.836Z,7.72
2022-11-19T23:46:30.778Z,8.73
2022-11-19T23:48:58.867Z,8.95
2022-11-19T23:51:35.112Z,7.78
2022-11-19T23:54:03.167Z,7.55
2022-11-19T23:56:32.154Z,7.78
2022-11-19T23:59:01.384Z,9.05
